<?xml version='1.0' encoding='UTF-8'?><gpx version="1.1" creator="JPX - https://github.com/jenetics/jpx" xmlns="http://www.topografix.com/GPX/1/1"><trk><trkseg><trkpt lat="39.06278127759401" lon="9.013559808547432"><ele>63.0</ele><time>2026-04-15T13:36:46.969Z</time></trkpt><trkpt lat="39.06273272821003" lon="9.01348356060086"><ele>63.0</ele><time>2026-04-15T13:36:47.959Z</time></trkpt><trkpt lat="39.06272594765515" lon="9.01357409807536"><ele>63.0</ele><time>2026-04-15T13:37:19.961Z</time></trkpt><trkpt lat="39.06274729075561" lon="9.01367286848325"><ele>63.0</ele><time>2026-04-15T13:37:28.973Z</time></trkpt><trkpt lat="39.062821528391765" lon="9.013656029490184"><ele>63.0</ele><time>2026-04-15T13:37:34.97Z</time></trkpt><trkpt lat="39.06289874343166" lon="9.013634839059776"><ele>63.0</ele><time>2026-04-15T13:37:37.964Z</time></trkpt><trkpt lat="39.06297691599283" lon="9.013581623880922"><ele>63.0</ele><time>2026-04-15T13:37:40.968Z</time></trkpt><trkpt lat="39.06301823576948" lon="9.013514911411349"><ele>63.0</ele><time>2026-04-15T13:37:42.962Z</time></trkpt><trkpt lat="39.0630641469682" lon="9.013438884161188"><ele>63.0</ele><time>2026-04-15T13:37:44.966Z</time></trkpt><trkpt lat="39.06312452240047" lon="9.013415221589531"><ele>63.0</ele><time>2026-04-15T13:37:47.961Z</time></trkpt><trkpt lat="39.06319367867187" lon="9.013437631837597"><ele>63.0</ele><time>2026-04-15T13:37:51.968Z</time></trkpt><trkpt lat="39.06322513351558" lon="9.01351591597517"><ele>63.0</ele><time>2026-04-15T13:37:54.964Z</time></trkpt><trkpt lat="39.06329791893561" lon="9.013538819642726"><ele>63.0</ele><time>2026-04-15T13:37:57.961Z</time></trkpt><trkpt lat="39.06337259270834" lon="9.013498735652977"><ele>59.4</ele><time>2026-04-15T13:38:07.962Z</time></trkpt><trkpt lat="39.06343790383211" lon="9.013448364728344"><ele>55.8</ele><time>2026-04-15T13:38:09.966Z</time></trkpt><trkpt lat="39.06349747284242" lon="9.013382764765463"><ele>52.2</ele><time>2026-04-15T13:38:12.963Z</time></trkpt><trkpt lat="39.06361187113348" lon="9.013409355978252"><ele>48.6</ele><time>2026-04-15T13:38:14.967Z</time></trkpt><trkpt lat="39.063715581837826" lon="9.013462661951383"><ele>45.0</ele><time>2026-04-15T13:38:16.962Z</time></trkpt><trkpt lat="39.063775181110245" lon="9.01358395265705"><ele>45.0</ele><time>2026-04-15T13:38:18.966Z</time></trkpt><trkpt lat="39.063801089798936" lon="9.013664614676436"><ele>45.0</ele><time>2026-04-15T13:38:19.963Z</time></trkpt><trkpt lat="39.063833661240466" lon="9.013740647498421"><ele>45.0</ele><time>2026-04-15T13:38:20.966Z</time></trkpt><trkpt lat="39.06388658331811" lon="9.013870136721783"><ele>45.0</ele><time>2026-04-15T13:38:22.961Z</time></trkpt><trkpt lat="39.06398994330559" lon="9.01388907118621"><ele>45.0</ele><time>2026-04-15T13:38:25.966Z</time></trkpt><trkpt lat="39.06409569366904" lon="9.013825154151933"><ele>43.8</ele><time>2026-04-15T13:38:27.963Z</time></trkpt><trkpt lat="39.06415989406258" lon="9.013764733228646"><ele>42.6</ele><time>2026-04-15T13:38:29.967Z</time></trkpt><trkpt lat="39.06418630682227" lon="9.013646175356433"><ele>41.4</ele><time>2026-04-15T13:38:35.966Z</time></trkpt><trkpt lat="39.06412860930602" lon="9.013538485074013"><ele>40.2</ele><time>2026-04-15T13:38:37.962Z</time></trkpt><trkpt lat="39.06413005841339" lon="9.013433352817762"><ele>39.0</ele><time>2026-04-15T13:38:40.968Z</time></trkpt><trkpt lat="39.064235537247065" lon="9.013389399798196"><ele>39.0</ele><time>2026-04-15T13:38:42.962Z</time></trkpt><trkpt lat="39.06429441139142" lon="9.013347250806731"><ele>39.0</ele><time>2026-04-15T13:38:44Z</time></trkpt><trkpt lat="39.06436650979283" lon="9.013310154742848"><ele>39.0</ele><time>2026-04-15T13:38:45Z</time></trkpt><trkpt lat="39.06443347131223" lon="9.013275066132422"><ele>39.0</ele><time>2026-04-15T13:38:46Z</time></trkpt><trkpt lat="39.06449455243838" lon="9.013244102275621"><ele>39.0</ele><time>2026-04-15T13:38:47Z</time></trkpt><trkpt lat="39.0645550272329" lon="9.013212325935363"><ele>39.0</ele><time>2026-04-15T13:38:48Z</time></trkpt><trkpt lat="39.064630305446784" lon="9.01318076863178"><ele>39.0</ele><time>2026-04-15T13:38:49Z</time></trkpt><trkpt lat="39.06473749387301" lon="9.013129203835662"><ele>39.5</ele><time>2026-04-15T13:38:51Z</time></trkpt><trkpt lat="39.064793551743676" lon="9.013090214975483"><ele>40.0</ele><time>2026-04-15T13:38:52Z</time></trkpt><trkpt lat="39.06484870437155" lon="9.013042784228023"><ele>40.5</ele><time>2026-04-15T13:38:53Z</time></trkpt><trkpt lat="39.064917650158925" lon="9.013001697596886"><ele>41.0</ele><time>2026-04-15T13:38:54Z</time></trkpt><trkpt lat="39.064984201414774" lon="9.012954690289694"><ele>41.5</ele><time>2026-04-15T13:38:55Z</time></trkpt><trkpt lat="39.065063268838" lon="9.012894591025317"><ele>42.0</ele><time>2026-04-15T13:38:56Z</time></trkpt><trkpt lat="39.065139279525134" lon="9.012841952050833"><ele>41.0</ele><time>2026-04-15T13:38:57Z</time></trkpt><trkpt lat="39.06521066570335" lon="9.01278784885177"><ele>40.0</ele><time>2026-04-15T13:38:58Z</time></trkpt><trkpt lat="39.06528567976166" lon="9.012728791234796"><ele>39.0</ele><time>2026-04-15T13:38:59Z</time></trkpt><trkpt lat="39.06535525379918" lon="9.012667199488327"><ele>38.0</ele><time>2026-04-15T13:39:00Z</time></trkpt><trkpt lat="39.06542813428695" lon="9.012617873396929"><ele>37.0</ele><time>2026-04-15T13:39:01Z</time></trkpt><trkpt lat="39.06549653478504" lon="9.012562751981937"><ele>36.0</ele><time>2026-04-15T13:39:02Z</time></trkpt><trkpt lat="39.065565625720176" lon="9.012513718838118"><ele>36.0</ele><time>2026-04-15T13:39:03Z</time></trkpt><trkpt lat="39.065632077587445" lon="9.012466691568306"><ele>36.0</ele><time>2026-04-15T13:39:04Z</time></trkpt><trkpt lat="39.06568828549731" lon="9.012421535598044"><ele>36.0</ele><time>2026-04-15T13:39:05Z</time></trkpt><trkpt lat="39.065790789588135" lon="9.012350352347337"><ele>36.0</ele><time>2026-04-15T13:39:07Z</time></trkpt><trkpt lat="39.06588336652566" lon="9.012271540721883"><ele>36.0</ele><time>2026-04-15T13:39:09Z</time></trkpt><trkpt lat="39.06597785707309" lon="9.012208293997864"><ele>35.666666666666664</ele><time>2026-04-15T13:39:11Z</time></trkpt><trkpt lat="39.0660403424223" lon="9.01215615543362"><ele>35.333333333333336</ele><time>2026-04-15T13:39:14Z</time></trkpt><trkpt lat="39.06609551620686" lon="9.012095873705285"><ele>35.0</ele><time>2026-04-15T13:39:25Z</time></trkpt><trkpt lat="39.06609215379877" lon="9.011989280203508"><ele>34.66666666666667</ele><time>2026-04-15T13:39:29Z</time></trkpt><trkpt lat="39.066039006019835" lon="9.011903401152813"><ele>34.333333333333336</ele><time>2026-04-15T13:39:31Z</time></trkpt><trkpt lat="39.06598961405944" lon="9.011827174761997"><ele>34.0</ele><time>2026-04-15T13:39:33Z</time></trkpt><trkpt lat="39.065932749773474" lon="9.011725240309763"><ele>34.2</ele><time>2026-04-15T13:39:35Z</time></trkpt><trkpt lat="39.06587356356745" lon="9.01162860869874"><ele>34.4</ele><time>2026-04-15T13:39:37Z</time></trkpt><trkpt lat="39.06580057842287" lon="9.011484347081486"><ele>34.6</ele><time>2026-04-15T13:39:39Z</time></trkpt><trkpt lat="39.06575908963014" lon="9.01139462577504"><ele>34.8</ele><time>2026-04-15T13:39:40Z</time></trkpt><trkpt lat="39.06571071920363" lon="9.011298305469309"><ele>35.0</ele><time>2026-04-15T13:39:41Z</time></trkpt><trkpt lat="39.06566928864348" lon="9.011211794467634"><ele>35.2</ele><time>2026-04-15T13:39:42Z</time></trkpt><trkpt lat="39.06564082145592" lon="9.011135794281827"><ele>35.4</ele><time>2026-04-15T13:39:43Z</time></trkpt><trkpt lat="39.065599794837794" lon="9.010997222806049"><ele>35.6</ele><time>2026-04-15T13:39:45Z</time></trkpt><trkpt lat="39.0656064018952" lon="9.010876012745788"><ele>35.8</ele><time>2026-04-15T13:39:47Z</time></trkpt><trkpt lat="39.06567048160897" lon="9.010827717006121"><ele>36.0</ele><time>2026-04-15T13:39:56Z</time></trkpt><trkpt lat="39.06577751845421" lon="9.010816226323366"><ele>36.833333333333336</ele><time>2026-04-15T13:39:59Z</time></trkpt><trkpt lat="39.06587428042095" lon="9.01080360485826"><ele>37.666666666666664</ele><time>2026-04-15T13:40:01Z</time></trkpt><trkpt lat="39.065951416779754" lon="9.010799866714894"><ele>38.5</ele><time>2026-04-15T13:40:02Z</time></trkpt><trkpt lat="39.066044685074644" lon="9.010802711725505"><ele>39.33333333333333</ele><time>2026-04-15T13:40:03Z</time></trkpt><trkpt lat="39.06612592113144" lon="9.01080164549312"><ele>40.166666666666664</ele><time>2026-04-15T13:40:04Z</time></trkpt><trkpt lat="39.06621341518621" lon="9.010795259672545"><ele>41.0</ele><time>2026-04-15T13:40:05Z</time></trkpt><trkpt lat="39.06628807764685" lon="9.010795136266962"><ele>41.0</ele><time>2026-04-15T13:40:06Z</time></trkpt><trkpt lat="39.06638615238447" lon="9.01079224956768"><ele>41.0</ele><time>2026-04-15T13:40:07Z</time></trkpt><trkpt lat="39.0664843201887" lon="9.010789254992286"><ele>41.0</ele><time>2026-04-15T13:40:08Z</time></trkpt><trkpt lat="39.06657952852242" lon="9.010786183056057"><ele>41.0</ele><time>2026-04-15T13:40:09Z</time></trkpt><trkpt lat="39.066679780216845" lon="9.010783649775117"><ele>41.0</ele><time>2026-04-15T13:40:10Z</time></trkpt><trkpt lat="39.06677364426024" lon="9.010779609547063"><ele>39.666666666666664</ele><time>2026-04-15T13:40:11Z</time></trkpt><trkpt lat="39.066865380119395" lon="9.010773460089627"><ele>38.33333333333333</ele><time>2026-04-15T13:40:12Z</time></trkpt><trkpt lat="39.066959292291116" lon="9.010773415166756"><ele>37.0</ele><time>2026-04-15T13:40:13Z</time></trkpt><trkpt lat="39.06705046247877" lon="9.01077412532378"><ele>35.666666666666664</ele><time>2026-04-15T13:40:14Z</time></trkpt><trkpt lat="39.06713567217316" lon="9.010776731138575"><ele>34.333333333333336</ele><time>2026-04-15T13:40:15Z</time></trkpt><trkpt lat="39.06722257026562" lon="9.010776803800539"><ele>33.0</ele><time>2026-04-15T13:40:16Z</time></trkpt><trkpt lat="39.06730132808791" lon="9.010775377503219"><ele>33.0</ele><time>2026-04-15T13:40:17Z</time></trkpt><trkpt lat="39.06740585318509" lon="9.010766369646717"><ele>33.0</ele><time>2026-04-15T13:40:19Z</time></trkpt><trkpt lat="39.06747751693665" lon="9.010750109809365"><ele>33.0</ele><time>2026-04-15T13:40:22Z</time></trkpt><trkpt lat="39.06747402339922" lon="9.010577680956281"><ele>33.0</ele><time>2026-04-15T13:40:23Z</time></trkpt><trkpt lat="39.06746789474495" lon="9.010486360539046"><ele>33.0</ele><time>2026-04-15T13:40:24Z</time></trkpt><trkpt lat="39.06746110470846" lon="9.010392303202174"><ele>32.5</ele><time>2026-04-15T13:40:25Z</time></trkpt><trkpt lat="39.06745920628991" lon="9.010291350879024"><ele>32.0</ele><time>2026-04-15T13:40:26Z</time></trkpt><trkpt lat="39.06745532503502" lon="9.010193385447268"><ele>31.5</ele><time>2026-04-15T13:40:27Z</time></trkpt><trkpt lat="39.06745253999361" lon="9.010103276289296"><ele>31.0</ele><time>2026-04-15T13:40:28Z</time></trkpt><trkpt lat="39.067448897327644" lon="9.009953678822063"><ele>30.5</ele><time>2026-04-15T13:40:30Z</time></trkpt><trkpt lat="39.06744463040849" lon="9.009813784449321"><ele>30.0</ele><time>2026-04-15T13:40:36Z</time></trkpt><trkpt lat="39.067528985187316" lon="9.009761046361044"><ele>30.0</ele><time>2026-04-15T13:40:38Z</time></trkpt><trkpt lat="39.067637616654174" lon="9.009672056212173"><ele>30.0</ele><time>2026-04-15T13:40:40Z</time></trkpt><trkpt lat="39.067736505063564" lon="9.009579134812626"><ele>30.0</ele><time>2026-04-15T13:40:42Z</time></trkpt><trkpt lat="39.067808260790315" lon="9.00944995341616"><ele>30.0</ele><time>2026-04-15T13:40:44Z</time></trkpt><trkpt lat="39.067837769714444" lon="9.0093744173688"><ele>30.0</ele><time>2026-04-15T13:40:45Z</time></trkpt><trkpt lat="39.06787087498906" lon="9.009295838598455"><ele>30.0</ele><time>2026-04-15T13:40:46Z</time></trkpt><trkpt lat="39.06790333950771" lon="9.009221087569143"><ele>30.0</ele><time>2026-04-15T13:40:47Z</time></trkpt><trkpt lat="39.06793300448693" lon="9.009144658775481"><ele>30.0</ele><time>2026-04-15T13:40:48Z</time></trkpt><trkpt lat="39.06800796002727" lon="9.009049297697109"><ele>30.0</ele><time>2026-04-15T13:40:50Z</time></trkpt><trkpt lat="39.06794330981846" lon="9.008909872463752"><ele>30.0</ele><time>2026-04-15T13:40:51Z</time></trkpt><trkpt lat="39.067912270286804" lon="9.008827554779716"><ele>30.0</ele><time>2026-04-15T13:40:52Z</time></trkpt><trkpt lat="39.06787454381691" lon="9.008743362166651"><ele>30.0</ele><time>2026-04-15T13:40:53Z</time></trkpt><trkpt lat="39.06783652854617" lon="9.008653169602294"><ele>30.0</ele><time>2026-04-15T13:40:54Z</time></trkpt><trkpt lat="39.06779375622663" lon="9.008561180237898"><ele>30.0</ele><time>2026-04-15T13:40:55Z</time></trkpt><trkpt lat="39.06775298802145" lon="9.008473605706762"><ele>30.0</ele><time>2026-04-15T13:40:56Z</time></trkpt><trkpt lat="39.06771018717737" lon="9.008394446063381"><ele>30.0</ele><time>2026-04-15T13:40:57Z</time></trkpt><trkpt lat="39.06765812848868" lon="9.008324325070936"><ele>30.0</ele><time>2026-04-15T13:40:58Z</time></trkpt><trkpt lat="39.06760104665144" lon="9.00826196296045"><ele>30.0</ele><time>2026-04-15T13:40:59Z</time></trkpt><trkpt lat="39.06754108173868" lon="9.008213681796656"><ele>30.0</ele><time>2026-04-15T13:41:00Z</time></trkpt><trkpt lat="39.06748490741884" lon="9.008174540814633"><ele>30.0</ele><time>2026-04-15T13:41:01Z</time></trkpt><trkpt lat="39.067430276930196" lon="9.00813247139826"><ele>30.0</ele><time>2026-04-15T13:41:02Z</time></trkpt><trkpt lat="39.06737439776331" lon="9.008080805678006"><ele>30.0</ele><time>2026-04-15T13:41:03Z</time></trkpt><trkpt lat="39.06732418342414" lon="9.008031898711364"><ele>30.0</ele><time>2026-04-15T13:41:04Z</time></trkpt><trkpt lat="39.06724143763091" lon="9.007932789345896"><ele>30.0</ele><time>2026-04-15T13:41:06Z</time></trkpt><trkpt lat="39.067178311128885" lon="9.00787355194359"><ele>30.333333333333332</ele><time>2026-04-15T13:41:09Z</time></trkpt><trkpt lat="39.0671109277988" lon="9.007830509834713"><ele>30.666666666666664</ele><time>2026-04-15T13:41:14Z</time></trkpt><trkpt lat="39.06704556704449" lon="9.007777695209192"><ele>31.0</ele><time>2026-04-15T13:41:16Z</time></trkpt><trkpt lat="39.06697739786525" lon="9.007709475592252"><ele>31.333333333333332</ele><time>2026-04-15T13:41:18Z</time></trkpt><trkpt lat="39.06688222762808" lon="9.00762223707769"><ele>31.666666666666664</ele><time>2026-04-15T13:41:20Z</time></trkpt><trkpt lat="39.06682233467745" lon="9.0075643423536"><ele>32.0</ele><time>2026-04-15T13:41:21Z</time></trkpt><trkpt lat="39.066753592075045" lon="9.007503584059904"><ele>32.2</ele><time>2026-04-15T13:41:22Z</time></trkpt><trkpt lat="39.06667938611124" lon="9.007438293372497"><ele>32.400000000000006</ele><time>2026-04-15T13:41:23Z</time></trkpt><trkpt lat="39.0666195241755" lon="9.007382046703592"><ele>32.599999999999994</ele><time>2026-04-15T13:41:24Z</time></trkpt><trkpt lat="39.06653437206204" lon="9.007313492772274"><ele>32.8</ele><time>2026-04-15T13:41:25Z</time></trkpt><trkpt lat="39.06645527360592" lon="9.007239453131056"><ele>33.0</ele><time>2026-04-15T13:41:26Z</time></trkpt><trkpt lat="39.06637782856738" lon="9.007166759582187"><ele>33.5</ele><time>2026-04-15T13:41:27Z</time></trkpt><trkpt lat="39.06630123189886" lon="9.007097279964299"><ele>34.0</ele><time>2026-04-15T13:41:28Z</time></trkpt><trkpt lat="39.06622416881009" lon="9.007032854768173"><ele>34.5</ele><time>2026-04-15T13:41:29Z</time></trkpt><trkpt lat="39.06615325969868" lon="9.00696922436023"><ele>35.0</ele><time>2026-04-15T13:41:30Z</time></trkpt><trkpt lat="39.06608869766607" lon="9.006909552330695"><ele>35.5</ele><time>2026-04-15T13:41:31Z</time></trkpt><trkpt lat="39.06602874235388" lon="9.006853617736747"><ele>36.0</ele><time>2026-04-15T13:41:32Z</time></trkpt><trkpt lat="39.06597451449733" lon="9.006806099722892"><ele>36.0</ele><time>2026-04-15T13:41:33Z</time></trkpt><trkpt lat="39.065922932934804" lon="9.0067511735605"><ele>36.0</ele><time>2026-04-15T13:41:35Z</time></trkpt><trkpt lat="39.06585882579093" lon="9.006691907552641"><ele>36.0</ele><time>2026-04-15T13:41:38Z</time></trkpt><trkpt lat="39.06578221804196" lon="9.006630594277786"><ele>36.0</ele><time>2026-04-15T13:41:40Z</time></trkpt><trkpt lat="39.0657320391501" lon="9.006569592107086"><ele>36.0</ele><time>2026-04-15T13:41:41Z</time></trkpt><trkpt lat="39.065678179002006" lon="9.006484166428654"><ele>36.0</ele><time>2026-04-15T13:41:42Z</time></trkpt><trkpt lat="39.065616457842225" lon="9.006396075549432"><ele>36.0</ele><time>2026-04-15T13:41:43Z</time></trkpt><trkpt lat="39.06556008949076" lon="9.006316453918625"><ele>36.0</ele><time>2026-04-15T13:41:44Z</time></trkpt><trkpt lat="39.0655043387756" lon="9.006238815595538"><ele>36.0</ele><time>2026-04-15T13:41:45Z</time></trkpt><trkpt lat="39.065438407515174" lon="9.006148451830372"><ele>36.0</ele><time>2026-04-15T13:41:46Z</time></trkpt><trkpt lat="39.06537605797456" lon="9.006047420456797"><ele>36.0</ele><time>2026-04-15T13:41:47Z</time></trkpt><trkpt lat="39.06531600812554" lon="9.005947910945778"><ele>36.0</ele><time>2026-04-15T13:41:48Z</time></trkpt><trkpt lat="39.06525717297653" lon="9.005853416130252"><ele>36.0</ele><time>2026-04-15T13:41:49Z</time></trkpt><trkpt lat="39.06519695513581" lon="9.005764576883136"><ele>36.0</ele><time>2026-04-15T13:41:50Z</time></trkpt><trkpt lat="39.06513888851537" lon="9.005686928709862"><ele>36.0</ele><time>2026-04-15T13:41:51Z</time></trkpt><trkpt lat="39.065076763365504" lon="9.005614734976328"><ele>36.0</ele><time>2026-04-15T13:41:52Z</time></trkpt><trkpt lat="39.06500942677223" lon="9.005549834155802"><ele>36.0</ele><time>2026-04-15T13:41:53Z</time></trkpt><trkpt lat="39.064941601573786" lon="9.005488013573126"><ele>37.0</ele><time>2026-04-15T13:41:54Z</time></trkpt><trkpt lat="39.064874478489926" lon="9.005421845916226"><ele>38.0</ele><time>2026-04-15T13:41:55Z</time></trkpt><trkpt lat="39.06480692485572" lon="9.005354603078008"><ele>39.0</ele><time>2026-04-15T13:41:56Z</time></trkpt><trkpt lat="39.064739296174764" lon="9.005291101697425"><ele>40.0</ele><time>2026-04-15T13:41:57Z</time></trkpt><trkpt lat="39.064680274469566" lon="9.00523510323922"><ele>41.0</ele><time>2026-04-15T13:41:58Z</time></trkpt><trkpt lat="39.064599301542685" lon="9.00516151473443"><ele>42.0</ele><time>2026-04-15T13:42:00Z</time></trkpt><trkpt lat="39.064498986919595" lon="9.005307657670697"><ele>42.0</ele><time>2026-04-15T13:42:04Z</time></trkpt><trkpt lat="39.064454016413876" lon="9.005443830500225"><ele>42.0</ele><time>2026-04-15T13:42:06Z</time></trkpt><trkpt lat="39.064421442844456" lon="9.005544733032211"><ele>42.0</ele><time>2026-04-15T13:42:07Z</time></trkpt><trkpt lat="39.064410003628396" lon="9.00563521105202"><ele>42.0</ele><time>2026-04-15T13:42:08Z</time></trkpt><trkpt lat="39.06438092634601" lon="9.005724373238623"><ele>42.0</ele><time>2026-04-15T13:42:09Z</time></trkpt><trkpt lat="39.064346815721365" lon="9.005821334018933"><ele>42.0</ele><time>2026-04-15T13:42:10Z</time></trkpt><trkpt lat="39.06431431103887" lon="9.0059148144328"><ele>41.666666666666664</ele><time>2026-04-15T13:42:11Z</time></trkpt><trkpt lat="39.06427999908217" lon="9.0059941515241"><ele>41.333333333333336</ele><time>2026-04-15T13:42:12Z</time></trkpt><trkpt lat="39.06425049697753" lon="9.006081966585201"><ele>41.0</ele><time>2026-04-15T13:42:13Z</time></trkpt><trkpt lat="39.06422198122762" lon="9.006167937991725"><ele>40.66666666666667</ele><time>2026-04-15T13:42:14Z</time></trkpt><trkpt lat="39.06419439407476" lon="9.006253966753492"><ele>40.333333333333336</ele><time>2026-04-15T13:42:15Z</time></trkpt><trkpt lat="39.06416893208068" lon="9.00634083470785"><ele>40.0</ele><time>2026-04-15T13:42:16Z</time></trkpt><trkpt lat="39.06410825150574" lon="9.006467413223032"><ele>45.0</ele><time>2026-04-15T13:42:18Z</time></trkpt><trkpt lat="39.06407647438798" lon="9.006550373308917"><ele>45.0</ele><time>2026-04-15T13:42:20Z</time></trkpt><trkpt lat="39.06399288952508" lon="9.006528455816449"><ele>45.0</ele><time>2026-04-15T13:42:23Z</time></trkpt><trkpt lat="39.06392782816721" lon="9.00649553182071"><ele>45.0</ele><time>2026-04-15T13:42:26Z</time></trkpt></trkseg></trk></gpx>